Time;durP1;ratioP1;P1;durP2;ratioP2;P2;SDS_P1;SDS_P2;PMS_P1;PMS_P2;Temp;Humidity;BMP_temperature;BMP_pressure;BME280_temperature;BME280_humidity;BME280_pressure;Samples;Min_cycle;Max_cycle;Signal;HPM_P1;HPM_P2
2024/04/04 00:00:59;;;;;;;3.90;1.10;;;;;;;12.33;51.54;99533.72;1725769;83;21041;-78
2024/04/04 00:03:31;;;;;;;1.70;1.00;;;;;;;12.33;51.63;99540.05;1725511;83;21497;-79
2024/04/04 00:05:59;;;;;;;1.65;1.07;;;;;;;12.33;51.67;99535.09;1725342;83;21083;-78
2024/04/04 00:08:27;;;;;;;2.98;1.05;;;;;;;12.31;51.76;99536.70;1725507;83;21421;-79
2024/04/04 00:10:58;;;;;;;3.00;1.30;;;;;;;12.32;51.85;99538.91;1725455;83;21089;-77
2024/04/04 00:13:26;;;;;;;3.00;0.80;;;;;;;12.30;51.86;99542.42;1725517;83;21113;-79
2024/04/04 00:15:54;;;;;;;1.98;0.90;;;;;;;12.28;52.01;99545.40;1725445;83;21053;-80
2024/04/04 00:18:22;;;;;;;3.85;1.40;;;;;;;12.27;52.07;99540.98;1725725;82;21026;-79
2024/04/04 00:20:50;;;;;;;2.98;1.00;;;;;;;12.27;52.14;99541.51;1725568;83;21048;-79
2024/04/04 00:23:19;;;;;;;2.80;0.93;;;;;;;12.27;52.27;99534.11;1725506;83;21457;-78
2024/04/04 00:25:48;;;;;;;2.02;1.02;;;;;;;12.28;52.26;99530.30;1725579;83;21050;-77
2024/04/04 00:28:16;;;;;;;3.35;1.15;;;;;;;12.27;52.22;99529.98;1725684;83;21052;-78
2024/04/04 00:30:45;;;;;;;2.98;1.05;;;;;;;12.23;52.33;99537.01;1725562;83;21096;-79
2024/04/04 00:33:13;;;;;;;2.30;0.95;;;;;;;12.18;52.52;99534.64;1725900;83;21001;-79
2024/04/04 00:35:41;;;;;;;2.52;1.00;;;;;;;12.15;52.60;99538.69;1725610;83;21053;-79
2024/04/04 00:38:18;;;;;;;7.90;0.90;;;;;;;12.12;52.74;99537.77;1724498;83;21101;-80
2024/04/04 00:40:47;;;;;;;3.20;1.32;;;;;;;12.11;52.86;99535.26;1723124;83;21034;-77
2024/04/04 00:43:15;;;;;;;3.20;1.20;;;;;;;12.09;52.98;99528.63;1723153;83;21019;-80
2024/04/04 00:45:43;;;;;;;2.47;0.98;;;;;;;12.06;53.09;99537.32;1723296;83;21074;-79
2024/04/04 00:48:11;;;;;;;2.30;1.10;;;;;;;11.97;53.29;99532.66;1723227;83;21030;-79
2024/04/04 00:50:40;;;;;;;4.78;1.00;;;;;;;11.93;53.54;99536.09;1722967;83;21046;-79
2024/04/04 00:53:08;;;;;;;3.10;1.12;;;;;;;11.86;53.80;99537.53;1723150;82;21038;-78
2024/04/04 00:55:36;;;;;;;3.67;1.60;;;;;;;11.81;53.98;99538.75;1723045;83;21474;-79
2024/04/04 00:58:04;;;;;;;3.65;1.35;;;;;;;11.75;54.22;99533.60;1723169;83;21074;-77
2024/04/04 01:00:33;;;;;;;4.35;1.40;;;;;;;11.72;54.47;99532.69;1723046;83;21033;-79
2024/04/04 01:03:01;;;;;;;4.37;1.65;;;;;;;11.70;54.65;99524.34;1723131;83;21026;-79
2024/04/04 01:05:30;;;;;;;5.12;1.55;;;;;;;11.67;54.79;99524.80;1722968;83;21034;-78
2024/04/04 01:07:58;;;;;;;4.47;1.50;;;;;;;11.64;54.93;99534.84;1722998;82;21070;-80
2024/04/04 01:10:27;;;;;;;3.90;1.50;;;;;;;11.61;55.11;99532.02;1723311;82;21034;-79
2024/04/04 01:12:55;;;;;;;5.80;1.60;;;;;;;11.57;55.26;99530.80;1722917;83;21507;-77
2024/04/04 01:15:23;;;;;;;3.65;1.50;;;;;;;11.53;55.49;99532.31;1722973;82;21482;-78
2024/04/04 01:17:51;;;;;;;2.90;1.30;;;;;;;11.48;55.83;99532.69;1723031;83;21516;-77
2024/04/04 01:20:19;;;;;;;3.72;1.45;;;;;;;11.41;56.09;99539.06;1723124;83;21472;-77
2024/04/04 01:22:48;;;;;;;3.62;1.20;;;;;;;11.39;56.37;99545.84;1723044;83;21061;-79
2024/04/04 01:25:17;;;;;;;5.80;1.80;;;;;;;11.36;56.61;99529.83;1723126;83;21002;-79
2024/04/04 01:27:49;;;;;;;3.95;1.40;;;;;;;11.33;56.85;99539.88;1722933;83;21018;-80
2024/04/04 01:30:17;;;;;;;3.55;1.80;;;;;;;11.28;57.24;99540.55;1722882;82;21136;-79
2024/04/04 01:32:45;;;;;;;3.70;1.75;;;;;;;11.26;57.50;99544.58;1722874;82;21037;-79
2024/04/04 01:35:14;;;;;;;3.62;1.12;;;;;;;11.26;57.77;99547.32;1722842;82;21065;-79
2024/04/04 01:37:42;;;;;;;2.70;1.37;;;;;;;11.22;57.99;99548.83;1722722;83;21486;-80
2024/04/04 01:40:10;;;;;;;2.27;1.30;;;;;;;11.21;58.19;99554.00;1726833;82;21517;-79
2024/04/04 01:42:38;;;;;;;5.40;1.30;;;;;;;11.20;58.44;99552.33;1760975;81;21022;-80
2024/04/04 01:45:07;;;;;;;2.58;1.27;;;;;;;11.17;58.68;99547.28;1760829;81;21078;-79
2024/04/04 01:47:36;;;;;;;4.42;1.40;;;;;;;11.13;58.84;99557.86;1760930;81;21078;-78
2024/04/04 01:50:05;;;;;;;6.25;1.27;;;;;;;11.11;59.08;99564.09;1760424;81;21046;-79
2024/04/04 01:52:34;;;;;;;5.22;1.47;;;;;;;11.09;59.19;99562.94;1760966;81;21097;-80
2024/04/04 01:55:03;;;;;;;3.83;1.37;;;;;;;11.07;59.49;99569.18;1760887;81;21504;-80
2024/04/04 01:57:31;;;;;;;5.47;1.37;;;;;;;11.02;59.61;99567.59;1729824;81;21548;-79
2024/04/04 01:59:59;;;;;;;2.67;1.20;;;;;;;11.02;59.87;99577.20;1761082;81;21086;-80
2024/04/04 02:02:28;;;;;;;2.60;1.20;;;;;;;10.99;59.99;99573.52;1761128;81;21082;-78
2024/04/04 02:04:56;;;;;;;2.70;1.25;;;;;;;10.95;60.17;99583.25;1760930;81;20987;-79
2024/04/04 02:07:25;;;;;;;1.90;1.20;;;;;;;10.93;60.34;99582.63;1761161;81;21062;-79
2024/04/04 02:09:54;;;;;;;5.85;1.42;;;;;;;10.91;60.54;99583.91;1761020;81;21015;-80
2024/04/04 02:12:22;;;;;;;2.20;1.30;;;;;;;10.90;60.75;99591.29;1760964;81;21528;-80
2024/04/04 02:14:51;;;;;;;2.65;1.32;;;;;;;10.87;60.91;99595.84;1760754;81;21963;-79
2024/04/04 02:17:19;;;;;;;3.10;1.10;;;;;;;10.81;61.07;99592.61;1760801;81;21050;-79
2024/04/04 02:19:47;;;;;;;2.85;1.27;;;;;;;10.78;61.31;99595.78;1760887;81;21141;-80
2024/04/04 02:22:16;;;;;;;2.17;1.20;;;;;;;10.79;61.70;99591.45;1760728;81;21113;-78
2024/04/04 02:24:44;;;;;;;6.20;1.42;;;;;;;10.76;61.94;99605.59;1760965;81;21077;-79
2024/04/04 02:27:12;;;;;;;2.58;1.40;;;;;;;10.73;62.15;99603.29;1760857;81;21022;-78
2024/04/04 02:29:44;;;;;;;3.75;1.50;;;;;;;10.72;62.24;99604.87;1760846;81;21109;-80
2024/04/04 02:32:12;;;;;;;3.80;1.60;;;;;;;10.70;62.05;99621.53;1760703;81;21110;-79
2024/04/04 02:34:41;;;;;;;2.52;1.42;;;;;;;10.69;62.11;99618.48;1761036;81;21062;-79
2024/04/04 02:37:09;;;;;;;2.52;1.60;;;;;;;10.67;62.13;99619.23;1761000;81;21022;-78
2024/04/04 02:39:37;;;;;;;3.30;1.40;;;;;;;10.64;62.01;99616.09;1757880;81;21082;-79
2024/04/04 02:42:06;;;;;;;2.75;1.40;;;;;;;10.60;61.95;99629.38;1723045;83;21065;-80
2024/04/04 02:44:35;;;;;;;2.37;1.42;;;;;;;10.54;61.81;99621.19;1692837;85;21082;-77
2024/04/04 02:47:03;;;;;;;2.22;1.50;;;;;;;10.51;61.79;99628.47;1722959;82;21065;-79
2024/04/04 02:49:32;;;;;;;3.27;1.52;;;;;;;10.46;61.95;99627.75;1692627;85;21027;-78
2024/04/04 02:52:00;;;;;;;1.92;1.30;;;;;;;10.38;62.29;99638.91;1722914;83;21015;-78
2024/04/04 02:54:28;;;;;;;2.37;1.40;;;;;;;10.33;62.66;99651.03;1692554;85;21054;-79
2024/04/04 02:56:57;;;;;;;3.37;1.67;;;;;;;10.29;62.62;99660.73;1722995;83;21034;-79
2024/04/04 02:59:25;;;;;;;4.12;1.20;;;;;;;10.22;62.59;99668.95;1692569;85;21047;-79
2024/04/04 03:01:53;;;;;;;2.72;1.17;;;;;;;10.15;62.69;99675.77;1696847;83;21611;-80
2024/04/04 03:04:24;;;;;;;1.80;1.10;;;;;;;10.09;62.24;99684.84;1692915;85;21525;-80
2024/04/04 03:06:52;;;;;;;1.98;1.10;;;;;;;10.05;61.61;99680.00;1722932;83;21014;-78
2024/04/04 03:09:21;;;;;;;1.82;0.85;;;;;;;9.97;60.53;99685.69;1692565;85;21522;-77
2024/04/04 03:11:49;;;;;;;1.10;0.80;;;;;;;9.83;58.47;99697.17;1722870;83;21478;-80
2024/04/04 03:14:17;;;;;;;1.98;0.70;;;;;;;9.68;57.70;99694.60;1692818;85;21511;-80
2024/04/04 03:16:46;;;;;;;2.77;1.00;;;;;;;9.59;58.01;99694.48;1723218;82;21445;-80
2024/04/04 03:19:14;;;;;;;1.02;0.80;;;;;;;9.56;58.02;99692.17;1692735;85;21019;-81
2024/04/04 03:21:43;;;;;;;1.47;0.90;;;;;;;9.51;57.83;99698.79;1723013;83;21030;-79
2024/04/04 03:24:11;;;;;;;1.37;0.88;;;;;;;9.46;58.01;99698.57;1692486;85;21030;-80
2024/04/04 03:26:40;;;;;;;1.65;1.05;;;;;;;9.45;58.31;99704.56;1723341;83;21030;-79
2024/04/04 03:29:08;;;;;;;2.10;0.85;;;;;;;9.41;58.84;99719.70;1692647;85;21047;-79
2024/04/04 03:31:37;;;;;;;1.82;0.80;;;;;;;9.35;59.15;99716.42;1723291;83;21063;-79
2024/04/04 03:34:05;;;;;;;1.67;0.80;;;;;;;9.32;59.03;99711.90;1692525;85;21039;-81
2024/04/04 03:36:33;;;;;;;2.58;0.93;;;;;;;9.27;58.80;99719.87;1723032;83;21498;-79
2024/04/04 03:39:03;;;;;;;1.02;0.80;;;;;;;9.21;58.67;99732.47;1692698;85;21078;-80
2024/04/04 03:41:34;;;;;;;1.32;0.80;;;;;;;9.17;58.19;99731.20;1724787;82;21502;-78
2024/04/04 03:44:02;;;;;;;4.00;1.98;;;;;;;9.08;58.17;99723.67;1725918;83;21034;-80
2024/04/04 03:46:30;;;;;;;1.57;0.78;;;;;;;9.06;58.32;99738.06;1725465;83;21013;-80
2024/04/04 03:48:59;;;;;;;1.82;0.85;;;;;;;9.03;58.15;99737.11;1725715;83;21002;-79
2024/04/04 03:51:28;;;;;;;1.12;0.75;;;;;;;9.01;57.68;99741.94;1725641;83;21030;-77
2024/04/04 03:53:57;;;;;;;0.75;0.72;;;;;;;8.93;57.45;99743.47;1699482;83;21026;-80
2024/04/04 03:56:25;;;;;;;2.02;1.10;;;;;;;8.85;57.50;99749.95;1725653;83;21543;-80
2024/04/04 03:58:54;;;;;;;1.95;0.90;;;;;;;8.85;57.74;99745.02;1725375;83;21029;-78
2024/04/04 04:01:23;;;;;;;1.65;0.80;;;;;;;8.86;57.65;99743.97;1698809;83;21050;-80
2024/04/04 04:03:51;;;;;;;1.72;0.98;;;;;;;8.81;56.86;99751.92;1725622;82;21018;-79
2024/04/04 04:06:19;;;;;;;1.55;0.82;;;;;;;8.71;56.75;99756.39;1725507;83;21070;-78
2024/04/04 04:08:48;;;;;;;1.32;0.93;;;;;;;8.64;56.76;99758.77;1725463;83;21062;-78
2024/04/04 04:11:16;;;;;;;1.98;0.90;;;;;;;8.63;56.93;99766.63;1725531;83;21037;-79
2024/04/04 04:13:48;;;;;;;1.67;1.10;;;;;;;8.63;56.75;99770.73;1724950;82;21054;-78
2024/04/04 04:16:17;;;;;;;1.65;0.90;;;;;;;8.60;56.45;99771.97;1725218;83;21058;-79
2024/04/04 04:18:45;;;;;;;1.95;0.78;;;;;;;8.55;56.28;99779.40;1725424;83;21098;-79
2024/04/04 04:21:17;;;;;;;1.82;0.93;;;;;;;8.47;56.42;99785.02;1725462;83;21066;-80
2024/04/04 04:23:51;;;;;;;2.90;1.40;;;;;;;8.47;56.55;99790.47;1725780;83;21018;-79
2024/04/04 04:26:20;;;;;;;1.52;0.95;;;;;;;8.47;56.53;99793.20;1725870;82;21069;-78
2024/04/04 04:28:48;;;;;;;1.40;1.12;;;;;;;8.48;56.69;99797.63;1725994;83;21058;-79
2024/04/04 04:31:29;;;;;;;1.30;0.80;;;;;;;8.52;56.73;99803.01;1725674;83;21041;-78
2024/04/04 04:34:01;;;;;;;2.30;1.22;;;;;;;8.54;56.57;99803.66;1725601;83;21477;-78
2024/04/04 04:36:54;;;;;;;1.87;1.60;;;;;;;8.53;56.44;99807.95;1725423;83;21022;-78
2024/04/04 04:39:23;;;;;;;3.58;1.27;;;;;;;8.49;56.69;99808.02;1725562;83;21034;-78
2024/04/04 04:41:52;;;;;;;3.20;1.10;;;;;;;8.44;56.68;99807.22;1726641;83;21508;-79
2024/04/04 04:44:20;;;;;;;2.27;1.50;;;;;;;8.43;56.77;99815.09;1761191;81;21329;-79
2024/04/04 04:46:48;;;;;;;2.95;1.20;;;;;;;8.46;56.80;99813.88;1730176;81;21098;-79
2024/04/04 04:49:18;;;;;;;2.10;1.00;;;;;;;8.49;56.83;99816.21;1760738;81;21038;-78
2024/04/04 04:51:47;;;;;;;1.90;1.15;;;;;;;8.51;56.64;99818.22;1760940;81;21189;-79
2024/04/04 04:54:15;;;;;;;2.62;2.33;;;;;;;8.55;56.71;99820.88;1760892;81;21105;-81
2024/04/04 04:56:44;;;;;;;1.30;1.00;;;;;;;8.58;56.67;99815.02;1760879;81;21365;-77
2024/04/04 04:59:13;;;;;;;1.98;0.93;;;;;;;8.60;56.38;99822.48;1761266;81;21010;-77
2024/04/04 05:01:41;;;;;;;2.67;1.20;;;;;;;8.55;56.38;99825.81;1760878;81;21024;-79
2024/04/04 05:04:09;;;;;;;1.62;0.93;;;;;;;8.51;56.08;99834.08;1761013;81;20998;-77
2024/04/04 05:06:38;;;;;;;3.25;1.30;;;;;;;8.48;56.15;99835.00;1760954;81;21049;-80
2024/04/04 05:09:06;;;;;;;0.72;0.70;;;;;;;8.48;56.18;99844.55;1706068;81;21030;-79
2024/04/04 05:11:34;;;;;;;3.20;0.80;;;;;;;8.46;55.49;99848.01;1760979;81;21527;-80
2024/04/04 05:14:03;;;;;;;2.35;0.93;;;;;;;8.38;55.55;99843.50;1761205;81;21098;-80
2024/04/04 05:16:31;;;;;;;1.50;0.75;;;;;;;8.37;55.49;99843.17;1760995;81;21050;-79
2024/04/04 05:19:00;;;;;;;1.27;0.80;;;;;;;8.36;55.20;99846.95;1761466;81;21090;-79
2024/04/04 05:21:28;;;;;;;1.90;0.88;;;;;;;8.36;54.90;99853.77;1760869;81;21426;-79
2024/04/04 05:23:57;;;;;;;3.02;0.70;;;;;;;8.34;54.73;99850.39;1760928;81;21018;-77
2024/04/04 05:26:25;;;;;;;0.95;0.70;;;;;;;8.31;54.60;99857.58;1760852;81;21623;-80
2024/04/04 05:28:55;;;;;;;0.85;0.72;;;;;;;8.23;54.68;99858.56;1760936;81;20986;-78
2024/04/04 05:31:24;;;;;;;1.05;0.78;;;;;;;8.17;54.81;99866.69;1761084;81;21054;-82
2024/04/04 05:33:53;;;;;;;1.52;1.10;;;;;;;8.13;54.90;99861.30;1760936;81;21042;-78
2024/04/04 05:36:21;;;;;;;2.85;1.10;;;;;;;8.13;55.06;99870.33;1761264;81;21028;-76
2024/04/04 05:38:49;;;;;;;2.12;1.00;;;;;;;8.15;54.96;99873.70;1760998;81;21478;-79
2024/04/04 05:41:18;;;;;;;1.45;0.88;;;;;;;8.16;55.05;99867.73;1751913;81;21596;-79
2024/04/04 05:43:46;;;;;;;3.00;1.00;;;;;;;8.18;55.06;99877.92;1697085;83;21022;-80
2024/04/04 05:46:14;;;;;;;3.45;1.10;;;;;;;8.21;54.91;99878.91;1692947;85;21078;-79
2024/04/04 05:48:43;;;;;;;2.42;0.90;;;;;;;8.24;54.94;99883.97;1723222;83;21525;-80
2024/04/04 05:51:11;;;;;;;6.10;1.42;;;;;;;8.25;54.99;99891.95;1693312;85;21086;-80
2024/04/04 05:53:40;;;;;;;1.95;1.05;;;;;;;8.26;55.05;99888.19;1723092;83;21006;-80
2024/04/04 05:56:08;;;;;;;7.58;1.40;;;;;;;8.31;54.80;99894.42;1692773;85;21078;-77
2024/04/04 05:58:36;;;;;;;1.55;0.82;;;;;;;8.31;54.70;99888.13;1723619;83;21018;-80
2024/04/04 06:01:05;;;;;;;1.45;0.90;;;;;;;8.30;54.80;99898.20;1667639;85;21082;-80
2024/04/04 06:03:34;;;;;;;2.75;0.90;;;;;;;8.29;54.79;99910.16;1697416;83;21026;-79
2024/04/04 06:06:03;;;;;;;5.12;0.82;;;;;;;8.28;54.89;99909.31;1693123;85;21090;-81
2024/04/04 06:08:32;;;;;;;1.27;0.98;;;;;;;8.25;54.84;99912.95;1723465;83;21061;-80
2024/04/04 06:11:00;;;;;;;2.15;0.90;;;;;;;8.24;55.02;99907.16;1693204;85;21110;-80
2024/04/04 06:13:28;;;;;;;1.70;1.10;;;;;;;8.28;55.12;99920.75;1723733;82;21053;-79
2024/04/04 06:16:01;;;;;;;1.98;0.80;;;;;;;8.31;55.23;99927.18;1692761;85;21459;-79
2024/04/04 06:18:28;;;;;;;1.47;0.90;;;;;;;8.31;54.72;99915.42;1723198;82;20998;-80
2024/04/04 06:20:56;;;;;;;5.12;1.10;;;;;;;8.20;54.70;99920.36;1693102;85;21095;-80
2024/04/04 06:23:27;;;;;;;2.00;0.90;;;;;;;8.11;54.97;99924.77;1723574;83;21049;-81
2024/04/04 06:25:55;;;;;;;3.10;0.95;;;;;;;8.08;54.97;99927.88;1693495;85;21074;-79
2024/04/04 06:28:23;;;;;;;2.33;1.10;;;;;;;8.03;55.31;99933.92;1723968;83;21022;-80
2024/04/04 06:30:52;;;;;;;4.08;1.00;;;;;;;8.09;55.54;99935.03;1693471;85;21043;-80
2024/04/04 06:33:20;;;;;;;6.33;2.02;;;;;;;8.15;55.34;99931.53;1723935;83;21066;-80
2024/04/04 06:35:49;;;;;;;4.10;1.57;;;;;;;8.19;55.27;99941.86;1668248;85;21051;-81
2024/04/04 06:38:18;;;;;;;4.10;1.30;;;;;;;8.26;55.19;99948.75;1723709;83;21026;-79
2024/04/04 06:40:47;;;;;;;2.12;1.22;;;;;;;8.30;54.99;99951.42;1693288;85;21524;-80
2024/04/04 06:43:15;;;;;;;5.17;1.60;;;;;;;8.35;54.83;99953.59;1728837;82;21117;-79
2024/04/04 06:45:44;;;;;;;2.50;1.40;;;;;;;8.37;54.76;99952.37;1762441;81;21034;-79
2024/04/04 06:48:12;;;;;;;4.33;1.07;;;;;;;8.39;54.53;99961.20;1761905;81;21038;-80
2024/04/04 06:50:40;;;;;;;6.10;1.20;;;;;;;8.36;54.19;99967.05;1761939;81;21023;-78
2024/04/04 06:53:09;;;;;;;2.83;1.30;;;;;;;8.33;53.45;99970.66;1762024;81;21019;-80
2024/04/04 06:55:38;;;;;;;4.65;1.90;;;;;;;8.27;53.20;99977.22;1762474;81;21069;-79
2024/04/04 06:58:06;;;;;;;3.08;1.12;;;;;;;8.27;52.68;99988.66;1762178;81;21050;-78
2024/04/04 07:00:35;;;;;;;3.17;1.00;;;;;;;8.28;52.50;99988.98;1761341;81;21050;-81
2024/04/04 07:03:05;;;;;;;2.02;1.00;;;;;;;8.35;52.13;99983.11;1761682;81;21031;-81
2024/04/04 07:05:34;;;;;;;1.90;0.95;;;;;;;8.37;50.76;99993.31;1761838;81;21030;-80
2024/04/04 07:08:05;;;;;;;2.50;1.00;;;;;;;8.34;50.30;99993.70;1762012;81;21034;-80
2024/04/04 07:10:34;;;;;;;2.20;0.80;;;;;;;8.37;50.45;99988.38;1761231;81;21054;-81
2024/04/04 07:13:03;;;;;;;1.00;0.90;;;;;;;8.46;49.86;100000.37;1762105;81;21058;-79
2024/04/04 07:15:32;;;;;;;1.70;0.82;;;;;;;8.49;49.91;100004.08;1761569;81;21050;-80
2024/04/04 07:18:03;;;;;;;2.15;0.90;;;;;;;8.52;49.47;99996.86;1761320;81;21051;-80
2024/04/04 07:20:32;;;;;;;1.77;0.95;;;;;;;8.56;49.55;100006.36;1761283;81;21062;-79
2024/04/04 07:23:01;;;;;;;2.27;0.88;;;;;;;8.58;49.68;100015.20;1761839;81;21078;-80
2024/04/04 07:25:30;;;;;;;1.85;0.98;;;;;;;8.61;50.07;100015.33;1761463;81;21062;-80
2024/04/04 07:28:00;;;;;;;2.62;0.88;;;;;;;8.65;50.06;100012.53;1762104;81;21062;-80
2024/04/04 07:30:30;;;;;;;2.10;1.07;;;;;;;8.67;50.07;100020.02;1761142;81;21009;-81
2024/04/04 07:33:00;;;;;;;1.30;1.10;;;;;;;8.66;50.14;100009.28;1762201;81;21066;-80
2024/04/04 07:35:28;;;;;;;1.45;0.98;;;;;;;8.64;50.31;100012.73;1762008;81;21061;-79
2024/04/04 07:37:57;;;;;;;14.80;4.53;;;;;;;8.63;49.83;100024.70;1762695;81;21022;-79
2024/04/04 07:40:25;;;;;;;8.63;2.77;;;;;;;8.65;49.72;100025.34;1762718;81;21486;-79
2024/04/04 07:42:55;;;;;;;1.62;0.90;;;;;;;8.72;49.18;100029.84;1730486;82;21069;-80
2024/04/04 07:45:23;;;;;;;3.25;0.82;;;;;;;8.72;48.96;100028.98;1756898;82;21015;-80
2024/04/04 07:47:52;;;;;;;1.45;0.70;;;;;;;8.67;49.03;100036.41;1757452;82;21050;-80
2024/04/04 07:50:21;;;;;;;3.95;0.80;;;;;;;8.70;49.28;100027.82;1757473;82;21419;-81
2024/04/04 07:52:52;;;;;;;3.45;0.70;;;;;;;8.76;49.09;100038.48;1757390;82;21030;-80
2024/04/04 07:55:21;;;;;;;3.45;1.52;;;;;;;8.76;48.53;100034.39;1757612;82;21045;-79
2024/04/04 07:57:52;;;;;;;4.08;1.45;;;;;;;8.73;48.72;100036.14;1743681;82;21030;-76
2024/04/04 08:00:23;;;;;;;2.12;0.70;;;;;;;8.77;48.50;100045.64;1718821;83;21039;-83
2024/04/04 08:02:55;;;;;;;1.20;0.90;;;;;;;8.76;48.58;100043.43;1702179;83;21094;-77
2024/04/04 08:05:24;;;;;;;6.67;2.75;;;;;;;8.92;49.98;100040.11;1714916;83;21122;-79
2024/04/04 08:07:52;;;;;;;2.12;1.30;;;;;;;9.03;48.84;100036.84;1678289;85;21502;-79
2024/04/04 08:10:21;;;;;;;7.08;2.45;;;;;;;9.08;48.27;100038.47;1688972;84;21483;-79
2024/04/04 08:12:51;;;;;;;3.60;1.35;;;;;;;9.12;47.92;100042.01;1702328;84;21071;-79
2024/04/04 08:15:21;;;;;;;7.30;1.60;;;;;;;9.09;47.97;100066.97;1702419;84;21442;-80
2024/04/04 08:17:49;;;;;;;3.25;1.55;;;;;;;9.11;48.23;100073.64;1702849;83;21062;-78
2024/04/04 08:20:18;;;;;;;7.12;2.62;;;;;;;9.06;47.72;100071.45;1702689;84;21034;-77
2024/04/04 08:22:49;;;;;;;2.30;1.40;;;;;;;8.97;48.13;100080.83;1702256;84;21042;-76
2024/04/04 08:25:19;;;;;;;5.80;1.72;;;;;;;8.99;48.69;100075.17;1714898;84;21490;-78
2024/04/04 08:27:48;;;;;;;9.70;3.95;;;;;;;9.03;48.65;100082.78;1686047;85;21035;-78
2024/04/04 08:30:17;;;;;;;2.90;1.47;;;;;;;8.97;48.45;100096.38;1702139;84;21030;-78
2024/04/04 08:32:45;;;;;;;7.92;2.90;;;;;;;8.92;48.67;100093.39;1714722;84;21067;-76
2024/04/04 08:35:14;;;;;;;5.92;2.98;;;;;;;8.82;48.75;100096.44;1702151;84;21075;-74
2024/04/04 08:37:43;;;;;;;6.67;2.50;;;;;;;8.78;49.09;100091.03;1716875;83;21062;-70
2024/04/04 08:40:11;;;;;;;5.08;2.05;;;;;;;8.72;49.41;100094.55;1690022;85;21110;-73
2024/04/04 08:42:40;;;;;;;1.30;1.07;;;;;;;8.71;49.55;100110.61;1704377;83;21075;-75
2024/04/04 08:45:10;;;;;;;2.42;1.10;;;;;;;8.69;49.37;100107.22;1676204;83;21074;-74
2024/04/04 08:47:39;;;;;;;2.92;1.00;;;;;;;8.69;49.42;100110.80;1714096;83;21471;-73
2024/04/04 08:50:12;;;;;;;2.52;1.30;;;;;;;8.74;49.48;100110.22;1724997;83;21030;-74
2024/04/04 08:52:40;;;;;;;2.72;1.32;;;;;;;8.83;49.34;100107.69;1713793;83;21047;-75
2024/04/04 08:55:09;;;;;;;5.28;1.32;;;;;;;8.91;49.41;100113.03;1715367;84;21042;-74
2024/04/04 08:57:37;;;;;;;4.08;1.40;;;;;;;8.99;49.22;100108.80;1725290;83;21081;-74
2024/04/04 09:00:11;;;;;;;2.55;1.40;;;;;;;8.95;48.97;100111.61;1714148;84;21095;-74
2024/04/04 09:02:40;;;;;;;3.42;1.22;;;;;;;8.96;49.19;100115.18;1698979;83;21074;-73
2024/04/04 09:05:10;;;;;;;5.37;2.00;;;;;;;9.04;48.97;100120.00;1713681;83;21512;-75
2024/04/04 09:07:39;;;;;;;6.87;2.20;;;;;;;9.15;48.74;100117.30;1724955;83;21060;-74
2024/04/04 09:10:14;;;;;;;6.95;2.08;;;;;;;9.21;48.81;100121.98;1688138;84;21628;-73
2024/04/04 09:12:45;;;;;;;1.07;0.82;;;;;;;9.29;48.54;100123.22;1708441;83;21029;-74
2024/04/04 09:15:16;;;;;;;1.50;0.95;;;;;;;9.38;48.08;100121.19;1731845;83;21073;-73
2024/04/04 09:17:46;;;;;;;1.70;1.10;;;;;;;9.45;48.43;100127.56;1732178;82;21062;-74
2024/04/04 09:20:18;;;;;;;1.22;0.98;;;;;;;9.58;47.97;100112.63;1699025;83;21065;-73
2024/04/04 09:22:46;;;;;;;2.35;0.90;;;;;;;9.66;47.45;100102.06;1732293;83;21673;-73
2024/04/04 09:25:15;;;;;;;1.77;0.90;;;;;;;9.64;47.76;100118.67;1724884;83;21074;-72
2024/04/04 09:27:45;;;;;;;2.50;0.90;;;;;;;9.69;47.60;100116.70;1732070;83;21473;-76
2024/04/04 09:30:13;;;;;;;2.70;1.32;;;;;;;9.73;47.87;100117.48;1724933;83;21005;-76
2024/04/04 09:32:42;;;;;;;2.77;1.27;;;;;;;9.83;47.76;100118.01;1732279;83;21054;-75
2024/04/04 09:35:13;;;;;;;2.27;0.90;;;;;;;9.96;47.68;100132.82;1724927;83;21062;-76
2024/04/04 09:37:43;;;;;;;1.65;1.10;;;;;;;10.00;47.41;100124.53;1703755;83;21070;-75
2024/04/04 09:40:12;;;;;;;2.62;1.05;;;;;;;10.00;47.88;100130.01;1724960;83;21093;-74
2024/04/04 09:42:42;;;;;;;1.92;1.10;;;;;;;10.10;47.75;100128.60;1732303;81;21513;-73
2024/04/04 09:45:13;;;;;;;1.25;1.00;;;;;;;10.14;47.06;100127.15;1698636;83;21545;-74
2024/04/04 09:47:48;;;;;;;3.47;1.50;;;;;;;10.10;47.06;100123.13;1732218;83;21042;-75
2024/04/04 09:50:19;;;;;;;2.00;1.00;;;;;;;10.04;47.11;100124.45;1725019;83;21066;-72
2024/04/04 09:52:48;;;;;;;2.10;1.15;;;;;;;10.07;47.37;100129.53;1732238;83;21540;-75
2024/04/04 09:55:19;;;;;;;4.85;1.40;;;;;;;10.15;47.15;100124.73;1724811;83;21042;-76
2024/04/04 09:57:47;;;;;;;3.20;1.30;;;;;;;10.17;47.34;100133.59;1732280;82;21018;-76
2024/04/04 10:00:19;;;;;;;4.12;1.70;;;;;;;10.24;46.78;100124.60;1698690;83;21015;-73
2024/04/04 10:02:59;;;;;;;4.20;1.60;;;;;;;10.10;46.96;100128.60;1732138;83;21070;-72
2024/04/04 10:05:38;;;;;;;2.90;1.40;;;;;;;10.07;47.27;100135.00;1724980;83;21102;-72
2024/04/04 10:08:14;;;;;;;2.72;1.50;;;;;;;10.02;47.13;100126.02;1732456;83;21034;-75
2024/04/04 10:10:44;;;;;;;4.35;1.77;;;;;;;9.92;47.04;100129.64;1725517;83;21022;-77
2024/04/04 10:13:13;;;;;;;2.75;1.22;;;;;;;9.89;47.63;100130.05;1726796;83;21042;-71
2024/04/04 10:15:55;;;;;;;2.55;1.20;;;;;;;10.00;47.74;100124.53;1760469;81;21074;-73
2024/04/04 10:18:20;;;;;;;2.95;1.37;;;;;;;10.12;47.40;100132.50;1759948;81;20999;-69
2024/04/04 10:20:57;;;;;;;2.60;1.00;;;;;;;10.21;47.05;100131.85;1760457;81;21085;-75
2024/04/04 10:23:25;;;;;;;1.30;0.75;;;;;;;10.27;46.95;100129.67;1760697;81;21050;-74
2024/04/04 10:26:09;;;;;;;3.87;1.22;;;;;;;10.36;46.65;100133.41;1728942;81;20998;-75
2024/04/04 10:28:38;;;;;;;2.17;0.93;;;;;;;10.42;46.64;100131.27;1760580;81;21454;-75
2024/04/04 10:31:09;;;;;;;2.50;0.90;;;;;;;10.45;46.35;100130.86;1760439;81;21092;-76
2024/04/04 10:33:38;;;;;;;2.12;1.30;;;;;;;10.50;46.26;100132.14;1760528;81;21042;-73
2024/04/04 10:36:07;;;;;;;2.60;1.07;;;;;;;10.46;46.20;100140.76;1760471;81;21035;-74
2024/04/04 10:38:36;;;;;;;2.15;0.85;;;;;;;10.41;46.31;100132.31;1760700;81;21109;-74
2024/04/04 10:41:08;;;;;;;2.42;0.90;;;;;;;10.40;46.33;100129.25;1760401;81;21117;-74
2024/04/04 10:43:40;;;;;;;1.37;1.00;;;;;;;10.39;46.31;100128.89;1753269;81;21525;-74
2024/04/04 10:46:08;;;;;;;6.35;4.33;;;;;;;10.42;46.11;100130.41;1722385;82;21707;-74
2024/04/04 10:48:37;;;;;;;3.65;1.47;;;;;;;10.43;45.97;100134.32;1749662;82;21023;-73
2024/04/04 10:51:05;;;;;;;3.27;1.12;;;;;;;10.42;46.22;100133.16;1749606;82;21094;-75
2024/04/04 10:53:35;;;;;;;1.35;1.00;;;;;;;10.42;45.98;100136.73;1749528;82;21513;-74
2024/04/04 10:56:04;;;;;;;1.45;0.90;;;;;;;10.36;46.06;100129.83;1749733;82;21003;-73
2024/04/04 10:58:33;;;;;;;3.62;1.25;;;;;;;10.33;46.20;100137.92;1749654;82;21487;-74
2024/04/04 11:01:01;;;;;;;2.35;0.93;;;;;;;10.39;46.63;100133.00;1749435;82;21478;-74
2024/04/04 11:03:30;;;;;;;3.33;1.20;;;;;;;10.51;46.50;100128.34;1749676;82;21078;-74
2024/04/04 11:05:59;;;;;;;2.95;1.15;;;;;;;10.57;46.21;100135.75;1722570;82;21466;-75
2024/04/04 11:08:28;;;;;;;1.70;1.10;;;;;;;10.65;46.13;100136.42;1749460;82;21054;-74
2024/04/04 11:10:57;;;;;;;1.22;0.80;;;;;;;10.68;45.86;100134.64;1749593;82;21043;-74
2024/04/04 11:13:28;;;;;;;1.85;1.00;;;;;;;10.73;45.75;100123.91;1722049;82;21090;-74
2024/04/04 11:15:56;;;;;;;1.42;0.85;;;;;;;10.77;45.79;100128.45;1696045;83;21093;-74
2024/04/04 11:18:28;;;;;;;1.57;1.00;;;;;;;10.80;45.42;100132.15;1722126;83;21050;-74
2024/04/04 11:20:56;;;;;;;1.80;1.02;;;;;;;10.79;45.44;100135.94;1722233;83;21070;-75
2024/04/04 11:23:25;;;;;;;1.87;1.12;;;;;;;10.80;45.49;100137.62;1721877;83;21139;-74
2024/04/04 11:25:55;;;;;;;2.33;1.00;;;;;;;10.84;45.48;100143.02;1722054;83;21513;-74
2024/04/04 11:28:24;;;;;;;1.35;0.80;;;;;;;10.89;45.19;100136.92;1722049;83;21520;-75
2024/04/04 11:30:53;;;;;;;1.70;1.10;;;;;;;10.92;45.14;100141.98;1722198;83;21018;-75
2024/04/04 11:33:23;;;;;;;3.30;0.98;;;;;;;10.86;45.07;100138.70;1696209;82;21545;-75
2024/04/04 11:35:53;;;;;;;2.70;0.90;;;;;;;10.83;45.26;100131.73;1721996;83;21031;-75
2024/04/04 11:38:22;;;;;;;2.45;1.70;;;;;;;10.84;45.03;100132.58;1722181;82;21098;-74
2024/04/04 11:40:51;;;;;;;1.67;0.95;;;;;;;10.84;45.30;100127.95;1721975;83;21019;-76
2024/04/04 11:43:22;;;;;;;1.80;1.02;;;;;;;10.93;45.33;100131.34;1722028;82;21049;-73